Terminal Aerodrome Forecast
Issued by NWS

Home | Current Version | Previous Version | Text Only | Print | Product List | Glossary Off
Versions: 1 2 3 4 5 6 7 8 9 10 11 12 13 14 15

000
FTUS43 KGRB 211121
TAFMTW
TAF
KMTW 211121Z 2112/2212 VRB03KT P6SM BKN250
     FM211500 18005KT P6SM BKN200
     FM211800 15010KT P6SM BKN150
     FM212200 15010KT P6SM SCT050 OVC120
      TEMPO 2123/2203 3SM TSRA BKN040CB
     FM220300 17007KT 5SM -SHRA VCTS SCT035CB OVC060
     FM220600 14009KT 3SM +SHRA VCTS OVC015CB
     FM221100 12008KT 4SM -SHRA BR OVC005=

USA.gov is the U.S. government's official web portal to all federal, state and local government web resources and services.